createdAt,value
2023-01-08T00:01:06.836Z,97805.34
2023-01-08T00:03:34.623Z,97795.91
2023-01-08T00:06:04.231Z,97805.78
2023-01-08T00:08:32.484Z,97814.03
2023-01-08T00:11:01.142Z,97805.69
2023-01-08T00:13:29.073Z,97807.56
2023-01-08T00:15:56.543Z,97814.00
2023-01-08T00:18:26.604Z,97804.88
2023-01-08T00:20:54.305Z,97792.63
2023-01-08T00:23:21.769Z,97794.16
2023-01-08T00:25:49.131Z,97790.06
2023-01-08T00:28:16.971Z,97786.06
2023-01-08T00:30:44.458Z,97771.97
2023-01-08T00:33:12.389Z,97773.06
2023-01-08T00:35:40.419Z,97778.53
2023-01-08T00:38:07.783Z,97776.91
2023-01-08T00:40:36.451Z,97767.38
2023-01-08T00:43:04.371Z,97773.31
2023-01-08T00:45:31.827Z,97774.53
2023-01-08T00:47:59.415Z,97779.03
2023-01-08T00:50:26.992Z,97766.63
2023-01-08T00:52:54.078Z,97762.97
2023-01-08T00:55:21.130Z,97749.56
2023-01-08T00:57:48.461Z,97738.56
2023-01-08T01:00:16.846Z,97732.34
2023-01-08T01:02:44.502Z,97727.56
2023-01-08T01:05:15.448Z,97723.19
2023-01-08T01:07:43.504Z,97729.19
2023-01-08T01:10:13.333Z,97724.47
2023-01-08T01:12:40.875Z,97724.13
2023-01-08T01:15:10.852Z,97725.34
2023-01-08T01:17:42.228Z,97725.78
2023-01-08T01:20:11.747Z,97722.47
2023-01-08T01:22:39.509Z,97724.97
2023-01-08T01:25:07.171Z,97716.00
2023-01-08T01:27:34.600Z,97724.38
2023-01-08T01:30:01.550Z,97719.69
2023-01-08T01:32:28.613Z,97730.69
2023-01-08T01:34:56.045Z,97724.97
2023-01-08T01:37:23.400Z,97731.75
2023-01-08T01:39:50.737Z,97730.97
2023-01-08T01:42:37.537Z,97741.78
2023-01-08T01:45:14.274Z,97734.97
2023-01-08T01:47:41.888Z,97728.44
2023-01-08T01:50:13.002Z,97732.03
2023-01-08T01:53:02.786Z,97740.03
2023-01-08T01:55:31.867Z,97739.03
2023-01-08T01:58:10.768Z,97728.50
2023-01-08T02:00:38.157Z,97743.75
2023-01-08T02:03:06.949Z,97739.13
2023-01-08T02:06:02.579Z,97740.19
2023-01-08T02:08:38.882Z,97735.16
2023-01-08T02:11:17.262Z,97729.09
2023-01-08T02:13:54.420Z,97723.22
2023-01-08T02:16:42.866Z,97730.63
2023-01-08T02:19:25.227Z,97720.69
2023-01-08T02:21:59.260Z,97717.34
2023-01-08T02:24:56.888Z,97703.91
2023-01-08T02:27:28.226Z,97694.22
2023-01-08T02:29:57.433Z,97693.88
2023-01-08T02:32:33.440Z,97688.09
2023-01-08T02:35:00.457Z,97685.38
2023-01-08T02:37:27.488Z,97680.09
2023-01-08T02:40:11.130Z,97670.81
2023-01-08T02:43:04.685Z,97662.00
2023-01-08T02:45:47.438Z,97664.41
2023-01-08T02:48:34.158Z,97650.34
2023-01-08T02:51:13.332Z,97642.19
2023-01-08T02:53:45.583Z,97645.50
2023-01-08T02:56:18.501Z,97641.38
2023-01-08T02:58:48.117Z,97628.53
2023-01-08T03:01:20.643Z,97635.22
2023-01-08T03:03:54.198Z,97632.72
2023-01-08T03:06:22.280Z,97628.69
2023-01-08T03:08:53.058Z,97627.66
2023-01-08T03:11:23.403Z,97625.63
2023-01-08T03:14:12.198Z,97622.00
2023-01-08T03:16:47.016Z,97627.50
2023-01-08T03:19:23.826Z,97619.72
2023-01-08T03:21:52.476Z,97620.53
2023-01-08T03:24:27.180Z,97621.41
2023-01-08T03:26:59.137Z,97614.16
2023-01-08T03:29:28.227Z,97607.81
2023-01-08T03:32:02.574Z,97611.94
2023-01-08T03:34:33.121Z,97616.16
2023-01-08T03:37:05.367Z,97609.84
2023-01-08T03:39:44.378Z,97611.72
2023-01-08T03:42:15.444Z,97603.81
2023-01-08T03:44:42.568Z,97604.00
2023-01-08T03:47:11.377Z,97608.25
2023-01-08T03:49:40.547Z,97601.03
2023-01-08T03:52:07.582Z,97597.66
2023-01-08T03:54:37.010Z,97593.88
2023-01-08T03:57:04.249Z,97594.41
2023-01-08T03:59:31.296Z,97587.69
2023-01-08T04:01:58.382Z,97585.44
2023-01-08T04:04:25.469Z,97583.59
2023-01-08T04:06:53.619Z,97576.59
2023-01-08T04:09:20.714Z,97567.84
2023-01-08T04:11:47.721Z,97566.75
2023-01-08T04:14:14.670Z,97579.41
2023-01-08T04:16:41.595Z,97573.16
2023-01-08T04:19:08.574Z,97570.25
2023-01-08T04:21:35.604Z,97577.81
2023-01-08T04:24:02.624Z,97563.19
2023-01-08T04:26:29.594Z,97571.38
2023-01-08T04:28:56.508Z,97571.28
2023-01-08T04:31:23.866Z,97560.16
2023-01-08T04:33:50.852Z,97557.00
2023-01-08T04:36:17.834Z,97564.00
2023-01-08T04:38:45.202Z,97558.97
2023-01-08T04:41:12.576Z,97565.97
2023-01-08T04:43:40.075Z,97570.63
2023-01-08T04:46:07.798Z,97568.00
2023-01-08T04:48:35.368Z,97565.88
2023-01-08T04:51:04.340Z,97567.66
2023-01-08T04:53:36.137Z,97575.28
2023-01-08T04:56:08.610Z,97566.03
2023-01-08T04:58:36.953Z,97571.28
2023-01-08T05:01:12.328Z,97563.72
2023-01-08T05:03:39.501Z,97579.00
2023-01-08T05:06:07.837Z,97577.13
2023-01-08T05:08:35.004Z,97582.81
2023-01-08T05:11:03.191Z,97585.97
2023-01-08T05:13:30.570Z,97579.69
2023-01-08T05:16:01.443Z,97581.00
2023-01-08T05:18:29.559Z,97586.66
2023-01-08T05:21:02.079Z,97589.28
2023-01-08T05:23:30.156Z,97581.56
2023-01-08T05:26:01.778Z,97585.03
2023-01-08T05:28:29.469Z,97587.72
2023-01-08T05:30:57.280Z,97589.19
2023-01-08T05:33:24.412Z,97596.91
2023-01-08T05:35:51.768Z,97597.00
2023-01-08T05:38:18.752Z,97605.59
2023-01-08T05:40:45.827Z,97601.66
2023-01-08T05:43:13.411Z,97598.63
2023-01-08T05:45:40.776Z,97586.53
2023-01-08T05:48:08.565Z,97597.38
2023-01-08T05:50:36.318Z,97592.66
2023-01-08T05:53:07.461Z,97586.13
2023-01-08T05:55:35.108Z,97586.88
2023-01-08T05:58:06.402Z,97584.09
2023-01-08T06:00:35.759Z,97582.66
2023-01-08T06:03:02.830Z,97587.66
2023-01-08T06:05:32.256Z,97594.94
2023-01-08T06:08:00.115Z,97592.31
2023-01-08T06:10:27.825Z,97598.03
2023-01-08T06:12:56.061Z,97594.56
2023-01-08T06:15:23.163Z,97600.66
2023-01-08T06:17:50.119Z,97605.06
2023-01-08T06:20:17.178Z,97611.97
2023-01-08T06:22:44.163Z,97611.88
2023-01-08T06:25:11.200Z,97603.66
2023-01-08T06:27:40.463Z,97597.47
2023-01-08T06:30:08.881Z,97594.50
2023-01-08T06:32:36.257Z,97594.75
2023-01-08T06:35:03.883Z,97590.41
2023-01-08T06:37:31.172Z,97584.72
2023-01-08T06:39:58.590Z,97579.94
2023-01-08T06:42:26.015Z,97572.97
2023-01-08T06:44:53.319Z,97574.41
2023-01-08T06:47:20.730Z,97574.56
2023-01-08T06:49:48.100Z,97569.31
2023-01-08T06:52:15.411Z,97564.41
2023-01-08T06:54:42.776Z,97563.06
2023-01-08T06:57:10.160Z,97566.31
2023-01-08T06:59:37.476Z,97556.28
2023-01-08T07:02:04.858Z,97571.00
2023-01-08T07:04:32.313Z,97572.03
2023-01-08T07:06:59.657Z,97560.81
2023-01-08T07:09:27.027Z,97572.66
2023-01-08T07:11:54.350Z,97567.25
2023-01-08T07:14:21.688Z,97577.88
2023-01-08T07:16:48.687Z,97572.88
2023-01-08T07:19:15.660Z,97567.94
2023-01-08T07:21:42.650Z,97570.91
2023-01-08T07:24:09.814Z,97570.44
2023-01-08T07:26:39.584Z,97568.16
2023-01-08T07:29:06.998Z,97573.81
2023-01-08T07:31:34.083Z,97579.44
2023-01-08T07:34:01.095Z,97566.97
2023-01-08T07:36:28.034Z,97571.28
2023-01-08T07:38:55.428Z,97572.81
2023-01-08T07:41:22.764Z,97563.09
2023-01-08T07:43:51.041Z,97579.06
2023-01-08T07:46:18.542Z,97583.50
2023-01-08T07:48:46.397Z,97581.28
2023-01-08T07:51:13.371Z,97576.81
2023-01-08T07:53:40.498Z,97575.81
2023-01-08T07:56:09.997Z,97571.59
2023-01-08T07:58:37.463Z,97579.63
2023-01-08T08:01:07.746Z,97571.88
2023-01-08T08:03:34.775Z,97582.50
2023-01-08T08:06:02.309Z,97564.66
2023-01-08T08:08:29.708Z,97577.34
2023-01-08T08:10:57.010Z,97568.53
2023-01-08T08:13:24.367Z,97560.47
2023-01-08T08:15:51.785Z,97565.06
2023-01-08T08:18:19.215Z,97565.44
2023-01-08T08:20:47.320Z,97569.97
2023-01-08T08:23:15.488Z,97560.38
2023-01-08T08:25:43.699Z,97565.03
2023-01-08T08:28:12.055Z,97561.31
2023-01-08T08:30:42.295Z,97568.75
2023-01-08T08:33:10.716Z,97569.72
2023-01-08T08:35:38.465Z,97564.56
2023-01-08T08:38:06.106Z,97562.81
2023-01-08T08:40:33.482Z,97562.56
2023-01-08T08:43:02.885Z,97561.59
2023-01-08T08:45:30.819Z,97551.78
2023-01-08T08:47:58.134Z,97555.41
2023-01-08T08:50:25.947Z,97555.50
2023-01-08T08:52:58.281Z,97548.22
2023-01-08T08:55:25.636Z,97542.75
2023-01-08T08:57:53.019Z,97543.88
2023-01-08T09:00:20.396Z,97540.94
2023-01-08T09:02:50.977Z,97538.91
2023-01-08T09:05:18.454Z,97526.66
2023-01-08T09:07:45.897Z,97535.78
2023-01-08T09:10:13.295Z,97538.16
2023-01-08T09:12:40.612Z,97540.41
2023-01-08T09:15:08.580Z,97533.81
2023-01-08T09:17:36.929Z,97533.97
2023-01-08T09:20:05.687Z,97535.84
2023-01-08T09:22:33.348Z,97530.38
2023-01-08T09:25:00.689Z,97529.28
2023-01-08T09:27:28.058Z,97532.88
2023-01-08T09:29:55.405Z,97538.97
2023-01-08T09:32:22.761Z,97533.44
2023-01-08T09:34:50.160Z,97531.09
2023-01-08T09:37:17.706Z,97537.78
2023-01-08T09:39:50.982Z,97530.38
2023-01-08T09:42:24.451Z,97534.44
2023-01-08T09:44:53.926Z,97525.06
2023-01-08T09:47:26.988Z,97518.09
2023-01-08T09:49:59.177Z,97529.44
2023-01-08T09:52:26.654Z,97519.97
2023-01-08T09:54:54.405Z,97520.81
2023-01-08T09:57:22.810Z,97519.53
2023-01-08T09:59:50.418Z,97515.88
2023-01-08T10:02:20.682Z,97522.78
2023-01-08T10:04:54.606Z,97515.28
2023-01-08T10:07:25.337Z,97515.50
2023-01-08T10:09:53.609Z,97512.44
2023-01-08T10:12:33.224Z,97513.25
2023-01-08T10:15:08.361Z,97522.09
2023-01-08T10:17:40.267Z,97529.41
2023-01-08T10:20:21.271Z,97518.31
2023-01-08T10:22:50.169Z,97521.66
2023-01-08T10:25:22.739Z,97525.25
2023-01-08T10:28:02.875Z,97529.88
2023-01-08T10:30:37.430Z,97522.09
2023-01-08T10:33:18.267Z,97522.97
2023-01-08T10:36:03.407Z,97512.53
2023-01-08T10:38:34.557Z,97509.28
2023-01-08T10:41:10.240Z,97510.38
2023-01-08T10:43:55.998Z,97507.03
2023-01-08T10:46:27.519Z,97503.41
2023-01-08T10:49:01.748Z,97510.72
2023-01-08T10:51:31.501Z,97490.44
2023-01-08T10:54:21.197Z,97496.59
2023-01-08T10:56:48.174Z,97494.84
2023-01-08T10:59:23.815Z,97498.34
2023-01-08T11:01:56.129Z,97493.91
2023-01-08T11:04:35.457Z,97493.09
2023-01-08T11:07:05.839Z,97487.94
2023-01-08T11:09:39.978Z,97495.22
2023-01-08T11:12:36.566Z,97484.56
2023-01-08T11:15:26.717Z,97505.16
2023-01-08T11:17:53.772Z,97478.91
2023-01-08T11:20:28.869Z,97485.19
2023-01-08T11:23:27.044Z,97487.13
2023-01-08T11:26:07.109Z,97484.94
2023-01-08T11:28:56.322Z,97485.50
2023-01-08T11:31:44.159Z,97480.66
2023-01-08T11:34:46.289Z,97482.84
2023-01-08T11:37:37.404Z,97473.59
2023-01-08T11:40:16.967Z,97466.94
2023-01-08T11:43:05.436Z,97463.31
2023-01-08T11:45:32.314Z,97456.25
2023-01-08T11:48:18.268Z,97452.66
2023-01-08T11:51:14.637Z,97442.22
2023-01-08T11:53:59.486Z,97435.03
2023-01-08T11:57:19.467Z,97427.97
2023-01-08T12:00:32.480Z,97417.97
2023-01-08T12:03:03.899Z,97411.47
2023-01-08T12:06:07.669Z,97415.47
2023-01-08T12:09:08.255Z,97406.84
2023-01-08T12:12:01.155Z,97409.34
2023-01-08T12:14:49.838Z,97401.44
2023-01-08T12:17:16.789Z,97389.22
2023-01-08T12:20:20.726Z,97394.22
2023-01-08T12:23:01.883Z,97401.16
2023-01-08T12:25:53.278Z,97403.53
2023-01-08T12:28:47.943Z,97391.59
2023-01-08T12:31:46.360Z,97383.81
2023-01-08T12:35:14.689Z,97379.78
2023-01-08T12:38:11.636Z,97375.47
2023-01-08T12:40:43.945Z,97370.88
2023-01-08T12:43:19.144Z,97370.59
2023-01-08T12:45:48.404Z,97378.53
2023-01-08T12:48:18.785Z,97369.78
2023-01-08T12:51:07.713Z,97383.66
2023-01-08T12:53:37.857Z,97374.94
2023-01-08T12:56:14.191Z,97375.63
2023-01-08T12:58:54.969Z,97374.22
2023-01-08T13:01:25.143Z,97374.91
2023-01-08T13:03:53.466Z,97367.13
2023-01-08T13:06:21.448Z,97373.66
2023-01-08T13:08:55.821Z,97375.34
2023-01-08T13:11:26.810Z,97361.44
2023-01-08T13:14:09.644Z,97357.56
2023-01-08T13:16:40.452Z,97353.94
2023-01-08T13:19:23.709Z,97360.91
2023-01-08T13:21:55.024Z,97360.59
2023-01-08T13:24:31.325Z,97357.97
2023-01-08T13:27:19.327Z,97340.31
2023-01-08T13:29:49.154Z,97339.91
2023-01-08T13:32:45.644Z,97338.91
2023-01-08T13:35:15.284Z,97339.63
2023-01-08T13:38:05.956Z,97339.78
2023-01-08T13:40:53.537Z,97342.25
2023-01-08T13:43:29.562Z,97336.44
2023-01-08T13:46:02.537Z,97345.31
2023-01-08T13:48:35.474Z,97334.06
2023-01-08T13:51:03.187Z,97330.91
2023-01-08T13:53:30.338Z,97326.16
2023-01-08T13:56:08.109Z,97316.16
2023-01-08T13:59:01.664Z,97322.13
2023-01-08T14:01:28.662Z,97318.22
2023-01-08T14:03:55.647Z,97304.88
2023-01-08T14:06:26.872Z,97312.09
2023-01-08T14:08:56.636Z,97296.50
2023-01-08T14:11:46.522Z,97297.72
2023-01-08T14:14:19.436Z,97300.38
2023-01-08T14:16:49.029Z,97298.28
2023-01-08T14:19:22.126Z,97304.53
2023-01-08T14:21:55.247Z,97308.00
2023-01-08T14:24:25.365Z,97294.53
2023-01-08T14:27:01.390Z,97299.59
2023-01-08T14:29:30.868Z,97295.72
2023-01-08T14:32:00.524Z,97298.31
2023-01-08T14:34:30.559Z,97294.94
2023-01-08T14:36:58.031Z,97285.34
2023-01-08T14:39:33.822Z,97272.44
2023-01-08T14:42:39.953Z,97288.19
2023-01-08T14:45:31.715Z,97292.25
2023-01-08T14:48:11.807Z,97286.97
2023-01-08T14:50:44.134Z,97298.34
2023-01-08T14:53:24.611Z,97289.03
2023-01-08T14:55:52.602Z,97295.31
2023-01-08T14:58:24.695Z,97288.38
2023-01-08T15:00:57.512Z,97278.47
2023-01-08T15:03:39.016Z,97271.41
2023-01-08T15:06:07.443Z,97264.75
2023-01-08T15:08:40.097Z,97258.38
2023-01-08T15:11:23.637Z,97260.28
2023-01-08T15:13:52.189Z,97260.59
2023-01-08T15:16:30.291Z,97256.56
2023-01-08T15:19:00.401Z,97247.69
2023-01-08T15:21:27.887Z,97245.09
2023-01-08T15:23:57.215Z,97241.50
2023-01-08T15:26:25.096Z,97242.53
2023-01-08T15:28:55.462Z,97234.53
2023-01-08T15:31:29.633Z,97218.72
2023-01-08T15:33:58.013Z,97214.16
2023-01-08T15:36:25.854Z,97213.91
2023-01-08T15:38:53.381Z,97204.22
2023-01-08T15:41:41.889Z,97200.59
2023-01-08T15:44:12.900Z,97201.19
2023-01-08T15:46:39.976Z,97195.78
2023-01-08T15:49:06.960Z,97186.47
2023-01-08T15:51:37.651Z,97180.38
2023-01-08T15:54:05.062Z,97174.69
2023-01-08T15:56:32.473Z,97175.00
2023-01-08T15:58:59.800Z,97175.81
2023-01-08T16:01:28.656Z,97170.56
2023-01-08T16:03:55.973Z,97174.72
2023-01-08T16:06:23.387Z,97176.63
2023-01-08T16:08:50.834Z,97171.66
2023-01-08T16:11:18.918Z,97172.47
2023-01-08T16:13:46.836Z,97165.44
2023-01-08T16:16:15.837Z,97175.00
2023-01-08T16:18:43.692Z,97163.34
2023-01-08T16:21:11.557Z,97158.19
2023-01-08T16:23:39.931Z,97162.66
2023-01-08T16:26:12.914Z,97158.78
2023-01-08T16:28:40.449Z,97163.06
2023-01-08T16:31:08.916Z,97155.31
2023-01-08T16:33:36.365Z,97153.09
2023-01-08T16:36:06.254Z,97147.94
2023-01-08T16:38:34.236Z,97140.63
2023-01-08T16:41:01.769Z,97147.41
2023-01-08T16:43:30.460Z,97141.44
2023-01-08T16:46:03.328Z,97134.34
2023-01-08T16:48:31.212Z,97127.28
2023-01-08T16:51:05.271Z,97127.97
2023-01-08T16:53:33.159Z,97132.69
2023-01-08T16:56:00.615Z,97125.47
2023-01-08T16:58:29.412Z,97126.97
2023-01-08T17:00:57.723Z,97107.69
2023-01-08T17:03:25.091Z,97106.59
2023-01-08T17:05:52.076Z,97088.53
2023-01-08T17:08:20.537Z,97085.72
2023-01-08T17:10:47.566Z,97092.06
2023-01-08T17:13:14.629Z,97083.44
2023-01-08T17:15:41.607Z,97074.41
2023-01-08T17:18:08.559Z,97079.06
2023-01-08T17:20:36.340Z,97071.47
2023-01-08T17:23:03.354Z,97066.50
2023-01-08T17:25:30.324Z,97065.19
2023-01-08T17:27:57.337Z,97063.75
2023-01-08T17:30:24.380Z,97065.03
2023-01-08T17:32:51.322Z,97058.78
2023-01-08T17:35:18.487Z,97061.13
2023-01-08T17:37:45.698Z,97061.13
2023-01-08T17:40:13.656Z,97047.19
2023-01-08T17:42:40.668Z,97037.91
2023-01-08T17:45:08.434Z,97042.91
2023-01-08T17:47:37.230Z,97044.44
2023-01-08T17:50:05.729Z,97043.03
2023-01-08T17:52:33.047Z,97049.09
2023-01-08T17:55:00.173Z,97043.06
2023-01-08T17:57:31.377Z,97035.72
2023-01-08T17:59:59.664Z,97024.38
2023-01-08T18:02:27.743Z,97027.53
2023-01-08T18:04:54.688Z,97030.47
2023-01-08T18:07:23.362Z,97031.41
2023-01-08T18:09:52.853Z,97036.81
2023-01-08T18:12:20.240Z,97032.91
2023-01-08T18:14:47.262Z,97029.84
2023-01-08T18:17:14.211Z,97029.84
2023-01-08T18:19:41.674Z,97021.97
2023-01-08T18:22:08.701Z,97020.31
2023-01-08T18:24:35.981Z,97015.56
2023-01-08T18:27:03.091Z,97012.22
2023-01-08T18:29:30.302Z,97003.63
2023-01-08T18:31:57.384Z,96997.81
2023-01-08T18:34:24.445Z,96990.91
2023-01-08T18:36:51.472Z,96981.94
2023-01-08T18:39:18.402Z,96974.59
2023-01-08T18:42:03.971Z,96973.50
2023-01-08T18:44:30.914Z,96963.94
2023-01-08T18:46:57.859Z,96962.72
2023-01-08T18:49:27.389Z,96966.31
2023-01-08T18:51:54.386Z,96970.19
2023-01-08T18:54:21.338Z,96977.25
2023-01-08T18:56:48.369Z,96978.06
2023-01-08T18:59:15.300Z,96975.97
2023-01-08T19:01:42.319Z,96980.66
2023-01-08T19:04:18.081Z,96977.50
2023-01-08T19:06:46.128Z,96974.72
2023-01-08T19:09:14.642Z,96969.72
2023-01-08T19:11:42.592Z,96978.59
2023-01-08T19:14:14.289Z,96967.81
2023-01-08T19:16:43.224Z,96953.69
2023-01-08T19:19:10.236Z,96954.53
2023-01-08T19:21:37.316Z,96963.13
2023-01-08T19:24:04.648Z,96965.88
2023-01-08T19:26:31.610Z,96950.66
2023-01-08T19:28:58.538Z,96948.03
2023-01-08T19:31:25.615Z,96945.25
2023-01-08T19:33:52.827Z,96938.84
2023-01-08T19:36:21.110Z,96941.72
2023-01-08T19:38:48.108Z,96925.63
2023-01-08T19:41:33.714Z,96929.00
2023-01-08T19:44:00.779Z,96919.94
2023-01-08T19:46:28.313Z,96908.41
2023-01-08T19:49:00.121Z,96907.75
2023-01-08T19:51:28.763Z,96910.13
2023-01-08T19:53:57.079Z,96895.59
2023-01-08T19:56:24.711Z,96902.13
2023-01-08T19:58:52.101Z,96901.28
2023-01-08T20:01:24.247Z,96902.41
2023-01-08T20:03:52.258Z,96898.00
2023-01-08T20:06:25.293Z,96888.97
2023-01-08T20:08:55.940Z,96886.47
2023-01-08T20:11:23.916Z,96889.00
2023-01-08T20:13:51.950Z,96883.56
2023-01-08T20:16:20.575Z,96892.91
2023-01-08T20:18:48.119Z,96880.41
2023-01-08T20:21:20.792Z,96870.63
2023-01-08T20:23:48.495Z,96856.94
2023-01-08T20:26:17.960Z,96867.38
2023-01-08T20:28:46.024Z,96859.34
2023-01-08T20:31:18.359Z,96847.78
2023-01-08T20:33:46.148Z,96848.31
2023-01-08T20:36:23.146Z,96839.44
2023-01-08T20:38:57.539Z,96838.78
2023-01-08T20:41:26.518Z,96837.50
2023-01-08T20:43:56.289Z,96837.81
2023-01-08T20:46:28.498Z,96837.94
2023-01-08T20:48:59.608Z,96826.75
2023-01-08T20:51:27.036Z,96828.28
2023-01-08T20:53:54.396Z,96827.69
2023-01-08T20:56:21.864Z,96815.13
2023-01-08T20:58:49.938Z,96807.50
2023-01-08T21:01:22.781Z,96806.81
2023-01-08T21:03:53.352Z,96807.78
2023-01-08T21:06:23.645Z,96806.28
2023-01-08T21:08:53.319Z,96799.06
2023-01-08T21:11:21.028Z,96790.38
2023-01-08T21:13:48.626Z,96785.78
2023-01-08T21:16:22.060Z,96786.63
2023-01-08T21:18:50.439Z,96792.00
2023-01-08T21:21:21.278Z,96790.19
2023-01-08T21:23:49.354Z,96782.50
2023-01-08T21:26:17.964Z,96768.47
2023-01-08T21:28:46.105Z,96762.28
2023-01-08T21:31:27.134Z,96762.69
2023-01-08T21:33:57.981Z,96763.13
2023-01-08T21:36:28.023Z,96758.69
2023-01-08T21:38:57.752Z,96751.22
2023-01-08T21:41:45.438Z,96748.59
2023-01-08T21:44:43.463Z,96750.81
2023-01-08T21:47:17.196Z,96749.00
2023-01-08T21:49:45.688Z,96743.75
2023-01-08T21:52:32.108Z,96739.06
2023-01-08T21:54:59.199Z,96731.16
2023-01-08T21:57:28.010Z,96728.25
2023-01-08T21:59:55.936Z,96727.56
2023-01-08T22:02:24.809Z,96724.41
2023-01-08T22:04:55.255Z,96719.84
2023-01-08T22:07:23.361Z,96712.66
2023-01-08T22:09:50.690Z,96702.94
2023-01-08T22:12:18.208Z,96702.25
2023-01-08T22:14:45.542Z,96701.69
2023-01-08T22:17:13.040Z,96696.72
2023-01-08T22:19:40.741Z,96692.16
2023-01-08T22:22:10.650Z,96683.47
2023-01-08T22:24:39.302Z,96685.13
2023-01-08T22:27:10.227Z,96679.84
2023-01-08T22:29:38.085Z,96685.94
2023-01-08T22:32:05.868Z,96686.50
2023-01-08T22:34:34.372Z,96682.91
2023-01-08T22:37:02.228Z,96677.66
2023-01-08T22:39:29.675Z,96688.44
2023-01-08T22:41:57.243Z,96685.94
2023-01-08T22:44:24.844Z,96693.72
2023-01-08T22:46:52.159Z,96690.38
2023-01-08T22:49:19.540Z,96695.50
2023-01-08T22:51:46.839Z,96687.06
2023-01-08T22:54:17.115Z,96695.50
2023-01-08T22:56:44.693Z,96685.13
2023-01-08T22:59:11.992Z,96679.47
2023-01-08T23:01:39.377Z,96679.47
2023-01-08T23:04:06.762Z,96666.47
2023-01-08T23:06:34.584Z,96672.97
2023-01-08T23:09:02.036Z,96671.03
2023-01-08T23:11:29.519Z,96682.22
2023-01-08T23:13:56.994Z,96680.28
2023-01-08T23:16:25.630Z,96668.25
2023-01-08T23:18:54.237Z,96651.78
2023-01-08T23:21:23.053Z,96664.53
2023-01-08T23:23:50.495Z,96660.25
2023-01-08T23:26:23.945Z,96663.19
2023-01-08T23:28:52.231Z,96658.16
2023-01-08T23:31:22.616Z,96658.72
2023-01-08T23:33:50.347Z,96652.66
2023-01-08T23:36:21.404Z,96652.91
2023-01-08T23:38:51.200Z,96644.78
2023-01-08T23:41:19.664Z,96642.84
2023-01-08T23:43:48.765Z,96637.56
2023-01-08T23:46:16.614Z,96636.59
2023-01-08T23:48:44.150Z,96632.72
2023-01-08T23:51:11.560Z,96618.47
2023-01-08T23:53:38.898Z,96621.91
2023-01-08T23:56:06.536Z,96625.06
2023-01-08T23:58:33.998Z,96617.19
